UAL752 KPSC-KRKS
Flight info
| Callsign | UAL752 |
|---|---|
| Flight time | 1h 16m |
| Altitude | 39000 |
| Route | PDT J20 PIH J163 OCS |
| Aircraft | B752/M-SDE3FGHIM3RWXY/LB1 |
Departure
| Time | 2026-05-07 21:05 |
|---|---|
| Airport | Tri Cities Airport (KPSC) |
Arrival
| Time | 2026-05-07 22:21 |
|---|---|
| Airport | Southwest Wyoming Regional Airport (KRKS) |
| Time | Latitude | Longitude | Altitude | Speed | Heading |
|---|---|---|---|---|---|
| 2026-05-07 20:52 | 46.25934 | -119.11301 | 411 ft | 0 kts | 274° |
| 2026-05-07 20:59 | 46.25934 | -119.11298 | 411 ft | 2 kts | 274° |
| 2026-05-07 21:00 | 46.25934 | -119.11291 | 411 ft | 0 kts | 274° |
| 2026-05-07 21:00 | 46.25932 | -119.11255 | 411 ft | 1 kts | 274° |
| 2026-05-07 21:00 | 46.25941 | -119.11275 | 411 ft | 8 kts | 317° |
| 2026-05-07 21:00 | 46.26012 | -119.11289 | 411 ft | 11 kts | 358° |
| 2026-05-07 21:01 | 46.26089 | -119.11261 | 412 ft | 10 kts | 355° |
| 2026-05-07 21:01 | 46.26148 | -119.11331 | 412 ft | 13 kts | 316° |
| 2026-05-07 21:01 | 46.26223 | -119.11436 | 411 ft | 16 kts | 315° |
| 2026-05-07 21:01 | 46.26308 | -119.11557 | 411 ft | 17 kts | 321° |
| 2026-05-07 21:02 | 46.26367 | -119.11532 | 411 ft | 11 kts | 47° |
| 2026-05-07 21:02 | 46.26439 | -119.11417 | 412 ft | 19 kts | 46° |
| 2026-05-07 21:02 | 46.26553 | -119.11256 | 413 ft | 24 kts | 45° |
| 2026-05-07 21:02 | 46.26674 | -119.11072 | 415 ft | 25 kts | 46° |
| 2026-05-07 21:03 | 46.26781 | -119.10917 | 417 ft | 16 kts | 46° |
| 2026-05-07 21:03 | 46.26846 | -119.10882 | 418 ft | 8 kts | 320° |
| 2026-05-07 21:03 | 46.26908 | -119.10977 | 417 ft | 18 kts | 314° |
| 2026-05-07 21:03 | 46.27021 | -119.11137 | 416 ft | 25 kts | 308° |
| 2026-05-07 21:04 | 46.27017 | -119.11250 | 415 ft | 2 kts | 225° |
| 2026-05-07 21:04 | 46.26988 | -119.11293 | 415 ft | 14 kts | 225° |
| 2026-05-07 21:04 | 46.26736 | -119.11669 | 411 ft | 91 kts | 226° |
| 2026-05-07 21:04 | 46.26128 | -119.12572 | 466 ft | 153 kts | 226° |
| 2026-05-07 21:05 | 46.25352 | -119.13473 | 1238 ft | 150 kts | 198° |
| 2026-05-07 21:05 | 46.24288 | -119.13387 | 1835 ft | 166 kts | 151° |
| 2026-05-07 21:05 | 46.23358 | -119.12298 | 2438 ft | 182 kts | 140° |
| 2026-05-07 21:05 | 46.22302 | -119.11216 | 3062 ft | 196 kts | 152° |
| 2026-05-07 21:06 | 46.21010 | -119.10326 | 3682 ft | 214 kts | 159° |
| 2026-05-07 21:06 | 46.19540 | -119.09547 | 4230 ft | 238 kts | 162° |
| 2026-05-07 21:06 | 46.17896 | -119.08835 | 4906 ft | 258 kts | 165° |
| 2026-05-07 21:06 | 46.16114 | -119.08162 | 5563 ft | 278 kts | 166° |
| 2026-05-07 21:07 | 46.14228 | -119.07511 | 6551 ft | 283 kts | 167° |
| 2026-05-07 21:07 | 46.12310 | -119.06879 | 7553 ft | 288 kts | 168° |
| 2026-05-07 21:07 | 46.10354 | -119.06253 | 8547 ft | 292 kts | 168° |
| 2026-05-07 21:07 | 46.08358 | -119.05627 | 9505 ft | 297 kts | 169° |
| 2026-05-07 21:08 | 46.06365 | -119.05009 | 10396 ft | 303 kts | 169° |
| 2026-05-07 21:08 | 46.04210 | -119.04346 | 10876 ft | 325 kts | 169° |
| 2026-05-07 21:08 | 46.01960 | -119.03655 | 11327 ft | 345 kts | 169° |
| 2026-05-07 21:08 | 45.99535 | -119.02912 | 11816 ft | 363 kts | 169° |
| 2026-05-07 21:09 | 45.97064 | -119.02155 | 12620 ft | 369 kts | 169° |
| 2026-05-07 21:09 | 45.94522 | -119.01379 | 13438 ft | 375 kts | 169° |
| 2026-05-07 21:09 | 45.91965 | -119.00598 | 14202 ft | 381 kts | 169° |
| 2026-05-07 21:09 | 45.89365 | -118.99805 | 15021 ft | 386 kts | 169° |
| 2026-05-07 21:10 | 45.86712 | -118.98997 | 15753 ft | 393 kts | 169° |
| 2026-05-07 21:10 | 45.84046 | -118.98186 | 16561 ft | 396 kts | 169° |
| 2026-05-07 21:10 | 45.81332 | -118.97361 | 17265 ft | 403 kts | 168° |
| 2026-05-07 21:10 | 45.78605 | -118.96532 | 17967 ft | 408 kts | 169° |
| 2026-05-07 21:11 | 45.75843 | -118.95692 | 18686 ft | 413 kts | 168° |
| 2026-05-07 21:11 | 45.73074 | -118.94408 | 19340 ft | 419 kts | 154° |
| 2026-05-07 21:11 | 45.68546 | -118.89206 | 20669 ft | 427 kts | 127° |
| 2026-05-07 21:12 | 45.66877 | -118.85683 | 21337 ft | 429 kts | 116° |
| 2026-05-07 21:12 | 45.65646 | -118.81827 | 21941 ft | 432 kts | 109° |
| 2026-05-07 21:12 | 45.64487 | -118.77863 | 22621 ft | 436 kts | 111° |
| 2026-05-07 21:12 | 45.63262 | -118.73899 | 23217 ft | 441 kts | 111° |
| 2026-05-07 21:13 | 45.61992 | -118.69885 | 23775 ft | 447 kts | 112° |
| 2026-05-07 21:13 | 45.60695 | -118.65850 | 24419 ft | 451 kts | 112° |
| 2026-05-07 21:13 | 45.59369 | -118.61758 | 24919 ft | 458 kts | 112° |
| 2026-05-07 21:13 | 45.58027 | -118.57642 | 25481 ft | 462 kts | 112° |
| 2026-05-07 21:14 | 45.56677 | -118.53519 | 25994 ft | 467 kts | 112° |
| 2026-05-07 21:14 | 45.55282 | -118.49270 | 26484 ft | 473 kts | 112° |
| 2026-05-07 21:14 | 45.53893 | -118.45050 | 26982 ft | 477 kts | 112° |
| 2026-05-07 21:14 | 45.52465 | -118.40717 | 27497 ft | 482 kts | 113° |
| 2026-05-07 21:15 | 45.51041 | -118.36408 | 28012 ft | 485 kts | 112° |
| 2026-05-07 21:15 | 45.49603 | -118.32060 | 28430 ft | 491 kts | 114° |
| 2026-05-07 21:15 | 45.48135 | -118.27632 | 28859 ft | 495 kts | 114° |
| 2026-05-07 21:15 | 45.46677 | -118.23244 | 29321 ft | 499 kts | 114° |
| 2026-05-07 21:16 | 45.45174 | -118.18724 | 29696 ft | 504 kts | 114° |
| 2026-05-07 21:16 | 45.43671 | -118.14213 | 30195 ft | 507 kts | 114° |
| 2026-05-07 21:16 | 45.42176 | -118.09734 | 30554 ft | 511 kts | 114° |
| 2026-05-07 21:16 | 45.40636 | -118.05131 | 30919 ft | 516 kts | 114° |
| 2026-05-07 21:17 | 45.39103 | -118.00551 | 31345 ft | 518 kts | 114° |
| 2026-05-07 21:17 | 45.37542 | -117.95900 | 31622 ft | 523 kts | 114° |
| 2026-05-07 21:17 | 45.35985 | -117.91267 | 32009 ft | 525 kts | 114° |
| 2026-05-07 21:17 | 45.34408 | -117.86585 | 32524 ft | 525 kts | 113° |
| 2026-05-07 21:18 | 45.32837 | -117.81927 | 32979 ft | 525 kts | 113° |
| 2026-05-07 21:18 | 45.31256 | -117.77248 | 33429 ft | 525 kts | 113° |
| 2026-05-07 21:18 | 45.29673 | -117.72571 | 33828 ft | 526 kts | 113° |
| 2026-05-07 21:18 | 45.28091 | -117.67907 | 34259 ft | 527 kts | 113° |
| 2026-05-07 21:19 | 45.26503 | -117.63233 | 34842 ft | 525 kts | 113° |
| 2026-05-07 21:19 | 45.24903 | -117.58529 | 35280 ft | 525 kts | 113° |
| 2026-05-07 21:19 | 45.23331 | -117.53919 | 35732 ft | 525 kts | 113° |
| 2026-05-07 21:19 | 45.21741 | -117.49265 | 36187 ft | 525 kts | 113° |
| 2026-05-07 21:20 | 45.20137 | -117.44574 | 36551 ft | 526 kts | 113° |
| 2026-05-07 21:20 | 45.18534 | -117.39898 | 37054 ft | 524 kts | 113° |
| 2026-05-07 21:20 | 45.16934 | -117.35236 | 37297 ft | 526 kts | 113° |
| 2026-05-07 21:20 | 45.15343 | -117.30609 | 37724 ft | 525 kts | 114° |
| 2026-05-07 21:21 | 45.13743 | -117.25964 | 37931 ft | 527 kts | 114° |
| 2026-05-07 21:21 | 45.12136 | -117.21308 | 38241 ft | 527 kts | 114° |
| 2026-05-07 21:21 | 45.10541 | -117.16697 | 38520 ft | 528 kts | 114° |
| 2026-05-07 21:21 | 45.08928 | -117.12037 | 38830 ft | 527 kts | 114° |
| 2026-05-07 21:22 | 45.07321 | -117.07405 | 39093 ft | 526 kts | 114° |
| 2026-05-07 21:22 | 45.05725 | -117.02814 | 39098 ft | 528 kts | 114° |
| 2026-05-07 21:22 | 45.02472 | -116.93475 | 39102 ft | 525 kts | 114° |
| 2026-05-07 21:23 | 44.99251 | -116.84260 | 39115 ft | 527 kts | 114° |
| 2026-05-07 21:23 | 44.95982 | -116.74943 | 39111 ft | 528 kts | 114° |
| 2026-05-07 21:24 | 44.92719 | -116.65673 | 39119 ft | 527 kts | 114° |
| 2026-05-07 21:24 | 44.89471 | -116.56480 | 39116 ft | 526 kts | 114° |
| 2026-05-07 21:25 | 44.86209 | -116.47278 | 39103 ft | 527 kts | 114° |
| 2026-05-07 21:25 | 44.82951 | -116.38113 | 39113 ft | 527 kts | 113° |
| 2026-05-07 21:26 | 44.79683 | -116.28954 | 39113 ft | 527 kts | 114° |
| 2026-05-07 21:26 | 44.76191 | -116.19852 | 39134 ft | 531 kts | 122° |
| 2026-05-07 21:27 | 44.71997 | -116.11349 | 39128 ft | 530 kts | 124° |
| 2026-05-07 21:27 | 44.67755 | -116.02881 | 39127 ft | 531 kts | 124° |
| 2026-05-07 21:28 | 44.63511 | -115.94468 | 39139 ft | 530 kts | 124° |
| 2026-05-07 21:28 | 44.59243 | -115.86043 | 39132 ft | 532 kts | 124° |
| 2026-05-07 21:29 | 44.55761 | -115.79195 | 39143 ft | 531 kts | 124° |
| 2026-05-07 21:29 | 44.51456 | -115.70752 | 39152 ft | 532 kts | 124° |
| 2026-05-07 21:30 | 44.47167 | -115.62359 | 39157 ft | 533 kts | 124° |
| 2026-05-07 21:30 | 44.42862 | -115.53964 | 39169 ft | 533 kts | 124° |
| 2026-05-07 21:31 | 44.38518 | -115.45515 | 39170 ft | 534 kts | 124° |
| 2026-05-07 21:31 | 44.34307 | -115.37353 | 39187 ft | 534 kts | 124° |
| 2026-05-07 21:32 | 44.29968 | -115.28957 | 39181 ft | 533 kts | 124° |
| 2026-05-07 21:32 | 44.25661 | -115.20654 | 39180 ft | 535 kts | 125° |
| 2026-05-07 21:33 | 44.21331 | -115.12331 | 39199 ft | 535 kts | 125° |
| 2026-05-07 21:33 | 44.16946 | -115.03923 | 39212 ft | 534 kts | 125° |
| 2026-05-07 21:34 | 44.12584 | -114.95587 | 39214 ft | 534 kts | 125° |
| 2026-05-07 21:34 | 44.08219 | -114.87266 | 39216 ft | 534 kts | 124° |
| 2026-05-07 21:35 | 44.03851 | -114.78962 | 39217 ft | 533 kts | 125° |
| 2026-05-07 21:35 | 43.99463 | -114.70650 | 39213 ft | 534 kts | 124° |
| 2026-05-07 21:36 | 43.95073 | -114.62351 | 39223 ft | 534 kts | 124° |
| 2026-05-07 21:36 | 43.90671 | -114.54056 | 39224 ft | 535 kts | 124° |
| 2026-05-07 21:37 | 43.86258 | -114.45763 | 39192 ft | 533 kts | 125° |
| 2026-05-07 21:37 | 43.81867 | -114.37535 | 39202 ft | 534 kts | 124° |
| 2026-05-07 21:38 | 43.77460 | -114.29301 | 39181 ft | 535 kts | 126° |
| 2026-05-07 21:38 | 43.73067 | -114.21115 | 39162 ft | 533 kts | 125° |
| 2026-05-07 21:39 | 43.68656 | -114.12918 | 39167 ft | 535 kts | 125° |
| 2026-05-07 21:39 | 43.64199 | -114.04662 | 39155 ft | 534 kts | 125° |
| 2026-05-07 21:40 | 43.59777 | -113.96491 | 39151 ft | 535 kts | 124° |
| 2026-05-07 21:40 | 43.55312 | -113.88264 | 39138 ft | 535 kts | 125° |
| 2026-05-07 21:41 | 43.50841 | -113.80048 | 39146 ft | 535 kts | 125° |
| 2026-05-07 21:41 | 43.46368 | -113.71853 | 39143 ft | 534 kts | 125° |
| 2026-05-07 21:42 | 43.41915 | -113.63716 | 39129 ft | 534 kts | 125° |
| 2026-05-07 21:42 | 43.37441 | -113.55563 | 39128 ft | 535 kts | 125° |
| 2026-05-07 21:43 | 43.32962 | -113.47427 | 39119 ft | 535 kts | 125° |
| 2026-05-07 21:43 | 43.28471 | -113.39288 | 39111 ft | 533 kts | 125° |
| 2026-05-07 21:44 | 43.24018 | -113.31239 | 39097 ft | 535 kts | 126° |
| 2026-05-07 21:44 | 43.19501 | -113.23101 | 39093 ft | 535 kts | 126° |
| 2026-05-07 21:45 | 43.15013 | -113.15034 | 39089 ft | 533 kts | 125° |
| 2026-05-07 21:45 | 43.10499 | -113.06944 | 39086 ft | 534 kts | 125° |
| 2026-05-07 21:46 | 43.05988 | -112.98881 | 39085 ft | 535 kts | 126° |
| 2026-05-07 21:46 | 43.01485 | -112.90855 | 39073 ft | 533 kts | 125° |
| 2026-05-07 21:47 | 42.96029 | -112.81160 | 39078 ft | 533 kts | 126° |
| 2026-05-07 21:47 | 42.91559 | -112.73235 | 39079 ft | 534 kts | 126° |
| 2026-05-07 21:48 | 42.86728 | -112.64059 | 39094 ft | 528 kts | 114° |
| 2026-05-07 21:48 | 42.83645 | -112.54987 | 39097 ft | 528 kts | 109° |
| 2026-05-07 21:49 | 42.80968 | -112.46890 | 39103 ft | 527 kts | 109° |
| 2026-05-07 21:49 | 42.77945 | -112.37779 | 39116 ft | 527 kts | 110° |
| 2026-05-07 21:50 | 42.74944 | -112.28773 | 39105 ft | 526 kts | 110° |
| 2026-05-07 21:50 | 42.71897 | -112.19658 | 39104 ft | 527 kts | 110° |
| 2026-05-07 21:51 | 42.68881 | -112.10667 | 39120 ft | 527 kts | 110° |
| 2026-05-07 21:51 | 42.65832 | -112.01612 | 39123 ft | 527 kts | 110° |
| 2026-05-07 21:52 | 42.62790 | -111.92599 | 39134 ft | 526 kts | 110° |
| 2026-05-07 21:52 | 42.59727 | -111.83556 | 39136 ft | 528 kts | 110° |
| 2026-05-07 21:53 | 42.56691 | -111.74628 | 39143 ft | 525 kts | 110° |
| 2026-05-07 21:53 | 42.53628 | -111.65644 | 39150 ft | 526 kts | 110° |
| 2026-05-07 21:54 | 42.50539 | -111.56619 | 39151 ft | 526 kts | 110° |
| 2026-05-07 21:54 | 42.47467 | -111.47665 | 39163 ft | 525 kts | 110° |
| 2026-05-07 21:55 | 42.44375 | -111.38686 | 39180 ft | 528 kts | 110° |
| 2026-05-07 21:55 | 42.41284 | -111.29742 | 39173 ft | 525 kts | 111° |
| 2026-05-07 21:56 | 42.38177 | -111.20775 | 39172 ft | 527 kts | 111° |
| 2026-05-07 21:56 | 42.35074 | -111.11852 | 39188 ft | 526 kts | 111° |
| 2026-05-07 21:57 | 42.31961 | -111.02932 | 39187 ft | 528 kts | 111° |
| 2026-05-07 21:57 | 42.28833 | -110.93991 | 39185 ft | 526 kts | 111° |
| 2026-05-07 21:58 | 42.25720 | -110.85128 | 39187 ft | 525 kts | 111° |
| 2026-05-07 21:58 | 42.22580 | -110.76214 | 39185 ft | 524 kts | 110° |
| 2026-05-07 21:59 | 42.19465 | -110.67391 | 39194 ft | 525 kts | 111° |
| 2026-05-07 21:59 | 42.16324 | -110.58539 | 39209 ft | 514 kts | 111° |
| 2026-05-07 22:00 | 42.14791 | -110.54232 | 39206 ft | 500 kts | 110° |
| 2026-05-07 22:00 | 42.13312 | -110.50080 | 39073 ft | 488 kts | 110° |
| 2026-05-07 22:00 | 42.11844 | -110.45947 | 38283 ft | 490 kts | 111° |
| 2026-05-07 22:00 | 42.10384 | -110.41849 | 37518 ft | 491 kts | 111° |
| 2026-05-07 22:01 | 42.08916 | -110.37736 | 36867 ft | 489 kts | 111° |
| 2026-05-07 22:01 | 42.07430 | -110.33583 | 36000 ft | 492 kts | 112° |
| 2026-05-07 22:01 | 42.05954 | -110.29464 | 35197 ft | 493 kts | 113° |
| 2026-05-07 22:01 | 42.04475 | -110.25343 | 34286 ft | 496 kts | 113° |
| 2026-05-07 22:02 | 42.02972 | -110.21162 | 33577 ft | 495 kts | 113° |
| 2026-05-07 22:02 | 42.01464 | -110.16977 | 32786 ft | 496 kts | 113° |
| 2026-05-07 22:02 | 41.99968 | -110.12832 | 32030 ft | 496 kts | 113° |
| 2026-05-07 22:02 | 41.98459 | -110.08657 | 31351 ft | 494 kts | 113° |
| 2026-05-07 22:03 | 41.96971 | -110.04542 | 30563 ft | 495 kts | 113° |
| 2026-05-07 22:03 | 41.95472 | -110.00404 | 29865 ft | 493 kts | 113° |
| 2026-05-07 22:03 | 41.93980 | -109.96290 | 29249 ft | 488 kts | 113° |
| 2026-05-07 22:03 | 41.92501 | -109.92218 | 28712 ft | 483 kts | 113° |
| 2026-05-07 22:04 | 41.91050 | -109.88225 | 28135 ft | 478 kts | 113° |
| 2026-05-07 22:04 | 41.89588 | -109.84216 | 27559 ft | 473 kts | 113° |
| 2026-05-07 22:04 | 41.88175 | -109.80341 | 27042 ft | 467 kts | 113° |
| 2026-05-07 22:04 | 41.86750 | -109.76437 | 26414 ft | 463 kts | 114° |
| 2026-05-07 22:05 | 41.85341 | -109.72583 | 25895 ft | 457 kts | 113° |
| 2026-05-07 22:05 | 41.83948 | -109.68780 | 25344 ft | 452 kts | 114° |
| 2026-05-07 22:05 | 41.82572 | -109.65027 | 24756 ft | 448 kts | 114° |
| 2026-05-07 22:05 | 41.81205 | -109.61304 | 24181 ft | 443 kts | 114° |
| 2026-05-07 22:06 | 41.79864 | -109.57657 | 23627 ft | 438 kts | 114° |
| 2026-05-07 22:06 | 41.78524 | -109.54016 | 22996 ft | 435 kts | 114° |
| 2026-05-07 22:06 | 41.77193 | -109.50405 | 22495 ft | 429 kts | 114° |
| 2026-05-07 22:06 | 41.75882 | -109.46853 | 21916 ft | 426 kts | 114° |
| 2026-05-07 22:07 | 41.74573 | -109.43308 | 21322 ft | 423 kts | 114° |
| 2026-05-07 22:07 | 41.73275 | -109.39799 | 20798 ft | 418 kts | 114° |
| 2026-05-07 22:07 | 41.71991 | -109.36333 | 20231 ft | 414 kts | 115° |
| 2026-05-07 22:07 | 41.70734 | -109.32943 | 19735 ft | 409 kts | 115° |
| 2026-05-07 22:08 | 41.69481 | -109.29568 | 19113 ft | 407 kts | 116° |
| 2026-05-07 22:08 | 41.68224 | -109.26187 | 18569 ft | 403 kts | 116° |
| 2026-05-07 22:08 | 41.66970 | -109.22817 | 17929 ft | 403 kts | 116° |
| 2026-05-07 22:08 | 41.65739 | -109.19511 | 17366 ft | 399 kts | 116° |
| 2026-05-07 22:09 | 41.64505 | -109.16206 | 16853 ft | 394 kts | 116° |
| 2026-05-07 22:09 | 41.63290 | -109.12951 | 16274 ft | 391 kts | 116° |
| 2026-05-07 22:09 | 41.62093 | -109.09750 | 15776 ft | 386 kts | 116° |
| 2026-05-07 22:09 | 41.60900 | -109.06563 | 15296 ft | 375 kts | 117° |
| 2026-05-07 22:10 | 41.59841 | -109.03399 | 14866 ft | 378 kts | 107° |
| 2026-05-07 22:10 | 41.59366 | -108.99921 | 14455 ft | 381 kts | 90° |
| 2026-05-07 22:10 | 41.59572 | -108.96452 | 14000 ft | 375 kts | 77° |
| 2026-05-07 22:10 | 41.60030 | -108.93033 | 13539 ft | 371 kts | 78° |
| 2026-05-07 22:11 | 41.60448 | -108.89677 | 13045 ft | 369 kts | 78° |
| 2026-05-07 22:11 | 41.60869 | -108.86257 | 12569 ft | 367 kts | 78° |
| 2026-05-07 22:11 | 41.61274 | -108.82920 | 12099 ft | 363 kts | 78° |
| 2026-05-07 22:11 | 41.61705 | -108.79633 | 11715 ft | 354 kts | 72° |
| 2026-05-07 22:12 | 41.62576 | -108.76656 | 11290 ft | 345 kts | 55° |
| 2026-05-07 22:12 | 41.64030 | -108.74173 | 10719 ft | 338 kts | 38° |
| 2026-05-07 22:12 | 41.65798 | -108.72147 | 10144 ft | 339 kts | 41° |
| 2026-05-07 22:12 | 41.67144 | -108.69566 | 10046 ft | 329 kts | 62° |
| 2026-05-07 22:13 | 41.67759 | -108.66708 | 10075 ft | 316 kts | 83° |
| 2026-05-07 22:13 | 41.67535 | -108.63899 | 10085 ft | 300 kts | 110° |
| 2026-05-07 22:13 | 41.66440 | -108.61537 | 10119 ft | 307 kts | 138° |
| 2026-05-07 22:13 | 41.64682 | -108.59993 | 10112 ft | 302 kts | 165° |
| 2026-05-07 22:14 | 41.62631 | -108.59608 | 10096 ft | 292 kts | 192° |
| 2026-05-07 22:14 | 41.60770 | -108.60436 | 10128 ft | 276 kts | 219° |
| 2026-05-07 22:14 | 41.59476 | -108.62235 | 10175 ft | 266 kts | 245° |
| 2026-05-07 22:14 | 41.58772 | -108.64479 | 10200 ft | 264 kts | 255° |
| 2026-05-07 22:15 | 41.58158 | -108.66787 | 10198 ft | 262 kts | 253° |
| 2026-05-07 22:15 | 41.57514 | -108.69067 | 10193 ft | 261 kts | 253° |
| 2026-05-07 22:15 | 41.56864 | -108.71329 | 10154 ft | 263 kts | 253° |
| 2026-05-07 22:15 | 41.56202 | -108.73601 | 10082 ft | 264 kts | 252° |
| 2026-05-07 22:16 | 41.55533 | -108.75880 | 9995 ft | 262 kts | 252° |
| 2026-05-07 22:16 | 41.54872 | -108.78133 | 9974 ft | 258 kts | 255° |
| 2026-05-07 22:16 | 41.54730 | -108.80479 | 9989 ft | 254 kts | 283° |
| 2026-05-07 22:16 | 41.55202 | -108.82782 | 9945 ft | 259 kts | 287° |
| 2026-05-07 22:17 | 41.55639 | -108.85007 | 9538 ft | 232 kts | 283° |
| 2026-05-07 22:17 | 41.55962 | -108.86880 | 9222 ft | 203 kts | 284° |
| 2026-05-07 22:17 | 41.56270 | -108.88596 | 9009 ft | 172 kts | 284° |
| 2026-05-07 22:17 | 41.56528 | -108.90037 | 8859 ft | 151 kts | 284° |
| 2026-05-07 22:18 | 41.56751 | -108.91282 | 8690 ft | 126 kts | 283° |
| 2026-05-07 22:18 | 41.57137 | -108.93443 | 8403 ft | 124 kts | 284° |
| 2026-05-07 22:18 | 41.57342 | -108.94579 | 8253 ft | 126 kts | 283° |
| 2026-05-07 22:19 | 41.57545 | -108.95727 | 8091 ft | 127 kts | 283° |
| 2026-05-07 22:19 | 41.57750 | -108.96877 | 7925 ft | 127 kts | 282° |
| 2026-05-07 22:19 | 41.57960 | -108.98047 | 7749 ft | 133 kts | 282° |
| 2026-05-07 22:19 | 41.58178 | -108.99273 | 7590 ft | 135 kts | 282° |
| 2026-05-07 22:20 | 41.58387 | -109.00446 | 7386 ft | 127 kts | 283° |
| 2026-05-07 22:20 | 41.58599 | -109.01615 | 7218 ft | 133 kts | 283° |
| 2026-05-07 22:20 | 41.58827 | -109.02788 | 7063 ft | 129 kts | 280° |
| 2026-05-07 22:20 | 41.59018 | -109.03925 | 6889 ft | 124 kts | 280° |
| 2026-05-07 22:21 | 41.59208 | -109.05025 | 6773 ft | 123 kts | 280° |
| 2026-05-07 22:21 | 41.59387 | -109.06076 | 6757 ft | 90 kts | 283° |
| 2026-05-07 22:21 | 41.59498 | -109.06699 | 6749 ft | 52 kts | 283° |
| 2026-05-07 22:21 | 41.59553 | -109.07010 | 6746 ft | 24 kts | 283° |
| 2026-05-07 22:22 | 41.59590 | -109.07217 | 6743 ft | 16 kts | 290° |
| 2026-05-07 22:22 | 41.59681 | -109.07256 | 6743 ft | 15 kts | 12° |
| 2026-05-07 22:22 | 41.59775 | -109.07270 | 6743 ft | 13 kts | 320° |
| 2026-05-07 22:22 | 41.59831 | -109.07255 | 6743 ft | 6 kts | 71° |
| 2026-05-07 22:23 | 41.59823 | -109.07216 | 6744 ft | 2 kts | 143° |
| 2026-05-07 22:23 | 41.59811 | -109.07216 | 6744 ft | 1 kts | 207° |
| 2026-05-07 22:23 | 41.59807 | -109.07221 | 6744 ft | 0 kts | 229° |